Time;durP1;ratioP1;P1;durP2;ratioP2;P2;SDS_P1;SDS_P2;PMS_P1;PMS_P2;Temp;Humidity;BMP_temperature;BMP_pressure;BME280_temperature;BME280_humidity;BME280_pressure;Samples;Min_cycle;Max_cycle;Signal;HPM_P1;HPM_P2
2022/08/08 00:01:03;;;;;;;11.68;10.55;;;;;;;23.09;57.27;94992.75;4983177;28;20234;-62
2022/08/08 00:04:14;;;;;;;11.43;10.48;;;;;;;23.22;56.76;94979.13;4965834;28;20230;-62
2022/08/08 00:06:47;;;;;;;12.13;11.27;;;;;;;23.30;56.59;94984.16;4914398;29;20252;-63
2022/08/08 00:09:33;;;;;;;11.18;10.27;;;;;;;23.30;56.49;94986.84;4903482;29;20234;-62
2022/08/08 00:12:01;;;;;;;11.80;10.63;;;;;;;23.29;56.04;94987.91;4900907;29;20314;-63
2022/08/08 00:14:32;;;;;;;11.70;10.63;;;;;;;23.34;56.15;94984.53;4921900;29;20213;-62
2022/08/08 00:17:15;;;;;;;12.07;11.13;;;;;;;23.28;56.19;94991.66;4893551;29;20379;-62
2022/08/08 00:19:47;;;;;;;11.40;10.43;;;;;;;23.03;56.96;94983.78;4912836;29;20285;-62
2022/08/08 00:22:41;;;;;;;11.10;10.15;;;;;;;23.04;56.99;94992.63;4923314;29;20257;-62
2022/08/08 00:25:14;;;;;;;11.30;10.43;;;;;;;23.07;56.88;94997.56;4912522;29;20369;-62
2022/08/08 00:27:42;;;;;;;12.23;11.20;;;;;;;23.17;56.39;94999.66;4908693;29;20796;-62
2022/08/08 00:30:10;;;;;;;11.98;11.07;;;;;;;23.24;56.28;94995.00;4914071;29;20264;-62
2022/08/08 00:32:36;;;;;;;11.65;10.73;;;;;;;23.28;55.93;94997.00;4912243;29;20229;-62
2022/08/08 00:35:10;;;;;;;11.75;10.85;;;;;;;23.17;56.36;94996.97;4914721;29;20683;-61
2022/08/08 00:38:03;;;;;;;13.02;11.80;;;;;;;23.25;56.16;94993.94;4942757;28;20327;-63
2022/08/08 00:40:28;;;;;;;11.73;10.73;;;;;;;23.15;56.59;94991.84;4934720;28;20712;-61
2022/08/08 00:43:19;;;;;;;11.63;10.50;;;;;;;23.04;57.24;95001.50;4937346;28;20244;-62
2022/08/08 00:46:26;;;;;;;11.18;10.25;;;;;;;23.01;57.35;94991.22;4984052;28;20235;-62
2022/08/08 00:49:03;;;;;;;11.60;10.63;;;;;;;23.05;57.04;95002.31;4978828;28;20247;-61
2022/08/08 00:51:57;;;;;;;11.82;10.93;;;;;;;22.87;57.50;94997.81;4990834;28;20229;-62
2022/08/08 00:54:37;;;;;;;12.13;11.13;;;;;;;22.81;58.09;94996.84;4995730;28;20234;-61
2022/08/08 00:57:40;;;;;;;10.95;10.15;;;;;;;22.71;58.37;95001.94;4995602;28;20227;-61
2022/08/08 01:00:14;;;;;;;12.15;11.02;;;;;;;22.68;58.67;94997.84;4988346;28;20320;-62
2022/08/08 01:03:01;;;;;;;11.95;11.02;;;;;;;22.71;58.38;95001.13;4975433;28;20250;-62
2022/08/08 01:05:51;;;;;;;11.45;10.55;;;;;;;22.64;58.80;94996.69;4989455;28;20298;-62
2022/08/08 01:08:34;;;;;;;11.43;10.60;;;;;;;22.71;58.81;95007.31;4990944;28;20628;-62
2022/08/08 01:11:23;;;;;;;11.35;10.45;;;;;;;22.55;59.22;95010.63;4990108;28;20238;-62
2022/08/08 01:14:07;;;;;;;11.98;10.98;;;;;;;22.56;59.04;95009.56;5003753;28;20223;-62
2022/08/08 01:17:03;;;;;;;11.25;10.35;;;;;;;22.52;59.17;95008.41;5005107;28;20219;-62
2022/08/08 01:19:35;;;;;;;12.13;11.13;;;;;;;22.56;59.00;95006.88;5003059;28;20767;-62
2022/08/08 01:22:06;;;;;;;10.95;10.05;;;;;;;22.46;58.95;95010.13;5008112;28;20559;-62
2022/08/08 01:25:19;;;;;;;11.23;10.30;;;;;;;22.38;59.29;95010.44;4997336;28;20250;-62
2022/08/08 01:28:00;;;;;;;11.90;10.90;;;;;;;22.55;59.18;95013.31;4993294;28;20242;-62
2022/08/08 01:30:51;;;;;;;12.15;11.05;;;;;;;22.50;59.28;95015.84;4990986;28;20235;-62
2022/08/08 01:33:37;;;;;;;12.27;11.27;;;;;;;22.48;59.70;95024.13;4985882;28;20283;-62
2022/08/08 01:36:12;;;;;;;12.00;11.00;;;;;;;22.49;59.27;95023.06;4967648;28;20231;-62
2022/08/08 01:39:20;;;;;;;11.73;10.73;;;;;;;22.55;59.08;95029.38;4974863;28;20237;-63
2022/08/08 01:42:04;;;;;;;12.23;11.32;;;;;;;22.50;59.15;95026.56;4987102;28;20234;-62
2022/08/08 01:44:44;;;;;;;12.10;11.20;;;;;;;22.45;59.43;95033.44;4989345;28;20219;-62
2022/08/08 01:47:47;;;;;;;12.95;11.85;;;;;;;22.44;59.37;95031.78;4971663;28;20246;-62
2022/08/08 01:50:27;;;;;;;12.07;11.07;;;;;;;22.28;59.84;95031.56;4983831;28;20631;-63
2022/08/08 01:52:58;;;;;;;12.65;11.45;;;;;;;22.35;59.32;95019.75;4989220;28;20248;-62
2022/08/08 01:55:42;;;;;;;11.43;10.43;;;;;;;22.32;58.78;95022.88;5007072;28;20223;-63
2022/08/08 01:58:25;;;;;;;12.20;11.10;;;;;;;22.20;58.96;95030.81;5002952;28;20223;-62
2022/08/08 02:01:15;;;;;;;11.32;10.43;;;;;;;22.07;58.96;95020.22;5002618;28;20268;-62
2022/08/08 02:03:41;;;;;;;11.55;10.43;;;;;;;22.04;58.68;95023.34;4986353;28;20227;-62
2022/08/08 02:06:48;;;;;;;11.13;10.23;;;;;;;22.06;58.31;95028.50;4994116;28;20222;-62
2022/08/08 02:09:29;;;;;;;11.10;10.20;;;;;;;22.12;57.84;95022.25;4986678;28;20234;-62
2022/08/08 02:12:01;;;;;;;10.63;9.82;;;;;;;22.13;57.69;95021.19;5000941;28;20280;-62
2022/08/08 02:14:47;;;;;;;11.07;10.20;;;;;;;22.13;57.79;95021.19;5005192;28;20207;-62
2022/08/08 02:17:28;;;;;;;11.43;10.50;;;;;;;21.96;58.36;95011.09;4984622;28;20207;-62
2022/08/08 02:19:57;;;;;;;10.70;9.70;;;;;;;21.90;58.66;95022.69;4980497;28;20207;-62
2022/08/08 02:22:50;;;;;;;11.23;10.07;;;;;;;21.92;58.79;95025.97;4984181;28;20270;-62
2022/08/08 02:25:23;;;;;;;11.48;10.45;;;;;;;21.73;59.43;95029.63;4979850;28;20261;-62
2022/08/08 02:28:31;;;;;;;10.10;9.23;;;;;;;21.86;59.25;95026.03;5005922;28;20334;-62
2022/08/08 02:31:07;;;;;;;11.10;10.20;;;;;;;21.73;59.49;95022.47;4909976;29;20233;-62
2022/08/08 02:33:54;;;;;;;12.48;11.38;;;;;;;21.90;59.22;95019.19;4926506;29;20233;-61
2022/08/08 02:36:43;;;;;;;11.43;10.50;;;;;;;21.71;59.88;95031.75;4920117;29;20241;-61
2022/08/08 02:39:31;;;;;;;11.00;9.95;;;;;;;21.66;60.16;95026.22;4911268;29;20237;-61
2022/08/08 02:42:05;;;;;;;11.27;10.27;;;;;;;21.68;60.00;95029.47;4908805;29;20264;-61
2022/08/08 02:44:49;;;;;;;11.10;10.20;;;;;;;21.75;59.62;95033.75;4927919;28;20258;-61
2022/08/08 02:47:57;;;;;;;11.13;10.18;;;;;;;21.69;59.97;95036.50;4929857;28;20272;-62
2022/08/08 02:50:41;;;;;;;10.88;9.88;;;;;;;21.60;59.95;95044.00;4918757;28;20209;-61
2022/08/08 02:53:23;;;;;;;10.57;9.00;;;;;;;21.56;59.92;95038.25;4930581;29;20333;-61
2022/08/08 02:56:17;;;;;;;10.48;9.65;;;;;;;21.46;59.81;95050.47;4932562;28;20236;-61
2022/08/08 02:59:20;;;;;;;10.27;9.48;;;;;;;21.50;59.77;95043.66;4923541;28;20320;-63
2022/08/08 03:02:04;;;;;;;11.27;10.18;;;;;;;21.51;60.03;95045.28;4911749;29;20225;-62
2022/08/08 03:04:29;;;;;;;11.02;10.18;;;;;;;21.49;60.83;95044.69;4945879;28;20225;-61
2022/08/08 03:06:54;;;;;;;11.18;10.38;;;;;;;21.54;60.61;95050.19;4974577;28;20286;-62
2022/08/08 03:09:35;;;;;;;11.88;10.82;;;;;;;21.52;60.48;95037.06;4988201;28;20231;-62
2022/08/08 03:12:32;;;;;;;13.57;12.27;;;;;;;21.65;60.67;95040.63;4979091;28;20216;-62
2022/08/08 03:15:26;;;;;;;12.07;11.07;;;;;;;21.56;61.01;95048.94;4988906;28;20276;-62
2022/08/08 03:18:21;;;;;;;12.02;10.82;;;;;;;21.35;61.45;95049.28;4997861;28;20223;-61
2022/08/08 03:20:48;;;;;;;12.55;11.35;;;;;;;21.34;61.80;95053.81;4989813;28;20230;-61
2022/08/08 03:23:14;;;;;;;12.70;11.70;;;;;;;21.50;61.23;95054.38;5006919;28;20214;-62
2022/08/08 03:25:41;;;;;;;12.30;11.20;;;;;;;21.55;61.18;95062.56;4994347;28;20568;-62
2022/08/08 03:28:16;;;;;;;12.93;11.93;;;;;;;21.40;61.55;95070.88;5003770;28;20235;-62
2022/08/08 03:30:45;;;;;;;11.63;10.48;;;;;;;21.29;62.11;95059.00;5002816;28;20313;-61
2022/08/08 03:33:17;;;;;;;12.30;11.18;;;;;;;21.22;62.40;95063.56;4993115;28;20597;-61
2022/08/08 03:35:43;;;;;;;12.23;11.23;;;;;;;21.28;62.08;95065.41;5001895;28;20238;-61
2022/08/08 03:38:09;;;;;;;12.77;11.75;;;;;;;21.27;62.17;95060.25;5013258;28;20209;-62
2022/08/08 03:40:35;;;;;;;12.18;11.15;;;;;;;21.21;62.47;95066.47;4982855;28;20204;-62
2022/08/08 03:43:01;;;;;;;12.32;11.02;;;;;;;21.19;62.60;95064.00;4987121;28;20255;-61
2022/08/08 03:45:28;;;;;;;12.18;11.07;;;;;;;21.24;62.46;95066.03;4997203;28;20218;-62
2022/08/08 03:48:01;;;;;;;13.40;12.18;;;;;;;21.29;62.45;95068.91;5000546;28;20231;-61
2022/08/08 03:50:28;;;;;;;12.48;11.48;;;;;;;21.41;61.89;95074.38;4989247;28;20227;-61
2022/08/08 03:52:55;;;;;;;13.23;11.93;;;;;;;21.42;62.04;95070.69;5004596;28;20207;-61
2022/08/08 03:55:22;;;;;;;12.80;11.80;;;;;;;21.32;62.42;95071.94;4990571;28;20343;-61
2022/08/08 03:57:52;;;;;;;13.10;11.95;;;;;;;21.31;62.63;95073.00;4988758;28;20310;-62
2022/08/08 04:00:20;;;;;;;14.18;12.88;;;;;;;21.17;62.95;95075.97;4991279;28;20224;-61
2022/08/08 04:03:07;;;;;;;13.60;12.25;;;;;;;21.13;63.18;95073.72;4973618;28;20235;-61
2022/08/08 04:05:35;;;;;;;13.45;12.23;;;;;;;21.15;63.20;95082.34;4983059;28;20226;-62
2022/08/08 04:08:04;;;;;;;12.75;11.65;;;;;;;21.37;62.39;95087.34;5004808;28;20329;-62
2022/08/08 04:10:31;;;;;;;14.88;12.27;;;;;;;21.38;62.20;95080.16;4983291;28;20271;-60
2022/08/08 04:12:57;;;;;;;14.43;12.90;;;;;;;21.26;62.31;95080.84;4988926;28;20231;-61
2022/08/08 04:15:23;;;;;;;13.18;12.07;;;;;;;20.89;63.62;95075.31;4987576;28;20228;-62
2022/08/08 04:17:49;;;;;;;14.20;13.00;;;;;;;20.93;63.45;95081.88;4980652;28;20249;-62
2022/08/08 04:20:14;;;;;;;13.82;12.52;;;;;;;20.89;63.36;95087.84;4995775;28;20203;-62
2022/08/08 04:22:40;;;;;;;14.52;12.63;;;;;;;20.60;64.74;95083.88;5006166;28;20685;-61
2022/08/08 04:25:07;;;;;;;12.52;11.48;;;;;;;20.87;63.99;95084.56;4992548;28;20273;-61
2022/08/08 04:27:34;;;;;;;13.63;12.20;;;;;;;20.77;63.52;95085.06;4981053;28;20290;-62
2022/08/08 04:30:01;;;;;;;13.25;12.05;;;;;;;20.87;63.36;95080.03;4987348;28;20230;-61
2022/08/08 04:32:26;;;;;;;13.88;12.73;;;;;;;20.71;64.43;95088.56;4995842;28;20219;-61
2022/08/08 04:34:51;;;;;;;13.30;12.13;;;;;;;21.06;63.18;95090.84;5009275;28;20203;-62
2022/08/08 04:37:17;;;;;;;14.80;13.50;;;;;;;21.43;61.73;95097.19;5005521;28;20330;-61
2022/08/08 04:39:43;;;;;;;12.52;11.52;;;;;;;21.46;61.42;95090.59;4996278;28;20227;-62
2022/08/08 04:42:08;;;;;;;13.68;12.57;;;;;;;21.49;60.74;95095.50;4996801;28;20221;-62
2022/08/08 04:44:34;;;;;;;13.73;12.45;;;;;;;21.44;61.65;95098.00;5007855;28;20299;-66
2022/08/08 04:46:59;;;;;;;13.00;11.75;;;;;;;22.05;59.81;95099.16;4985057;28;20230;-67
2022/08/08 04:49:25;;;;;;;12.63;11.52;;;;;;;22.16;58.99;95103.75;4989226;28;20323;-62
2022/08/08 04:51:50;;;;;;;13.57;12.38;;;;;;;22.08;59.80;95104.91;4987565;28;20231;-66
2022/08/08 04:54:16;;;;;;;15.02;13.68;;;;;;;22.13;59.29;95098.84;4997779;28;20305;-62
2022/08/08 04:56:41;;;;;;;13.32;12.13;;;;;;;22.02;59.39;95111.13;4984489;28;20227;-64
2022/08/08 04:59:07;;;;;;;13.45;12.35;;;;;;;21.89;59.79;95106.72;5005088;28;20202;-65
2022/08/08 05:01:32;;;;;;;12.88;11.77;;;;;;;21.98;59.66;95109.94;4998864;28;20219;-64
2022/08/08 05:03:58;;;;;;;13.10;11.90;;;;;;;22.15;59.30;95110.97;5002402;28;20304;-63
2022/08/08 05:06:23;;;;;;;13.90;12.70;;;;;;;22.20;58.91;95105.81;4993980;28;20224;-64
2022/08/08 05:08:50;;;;;;;13.13;12.00;;;;;;;22.01;59.66;95110.31;4992088;28;20222;-63
2022/08/08 05:11:15;;;;;;;13.90;12.48;;;;;;;22.27;58.96;95110.31;5004197;28;20237;-64
2022/08/08 05:13:41;;;;;;;14.18;12.68;;;;;;;22.45;58.28;95105.78;4989242;28;20243;-63
2022/08/08 05:16:07;;;;;;;12.90;11.73;;;;;;;22.46;57.51;95101.22;5005134;28;20341;-64
2022/08/08 05:18:35;;;;;;;11.32;10.43;;;;;;;22.27;58.36;95119.16;4994944;28;20539;-63
2022/08/08 05:21:04;;;;;;;12.27;11.00;;;;;;;22.34;58.09;95119.88;4980769;28;20731;-63
2022/08/08 05:23:30;;;;;;;11.70;10.52;;;;;;;22.40;58.04;95116.34;4980074;28;20253;-65
2022/08/08 05:25:56;;;;;;;11.63;10.60;;;;;;;22.34;58.04;95117.22;4976153;28;20208;-65
2022/08/08 05:28:21;;;;;;;11.45;10.43;;;;;;;22.44;58.07;95125.56;5003200;28;20235;-64
2022/08/08 05:30:47;;;;;;;12.25;10.70;;;;;;;22.34;58.08;95116.38;4984329;28;20281;-66
2022/08/08 05:33:13;;;;;;;11.65;10.65;;;;;;;22.29;58.33;95125.09;4996905;28;20274;-64
2022/08/08 05:35:41;;;;;;;12.10;10.85;;;;;;;22.42;57.67;95119.59;4983202;28;20273;-64
2022/08/08 05:38:12;;;;;;;12.20;11.10;;;;;;;22.51;57.45;95119.28;4971708;28;20208;-64
2022/08/08 05:40:44;;;;;;;11.38;10.25;;;;;;;22.75;56.59;95123.78;4981463;28;20239;-64
2022/08/08 05:43:15;;;;;;;11.45;10.32;;;;;;;22.74;56.08;95114.06;4982284;28;20219;-66
2022/08/08 05:45:41;;;;;;;11.07;10.20;;;;;;;22.94;55.39;95118.38;5001210;28;20227;-66
2022/08/08 05:48:08;;;;;;;11.70;10.57;;;;;;;22.90;55.54;95118.81;4999536;28;20238;-65
2022/08/08 05:50:34;;;;;;;12.23;10.98;;;;;;;22.79;55.83;95116.91;4985457;28;20574;-68
2022/08/08 05:53:00;;;;;;;12.07;10.82;;;;;;;22.91;55.55;95122.34;4981509;28;20227;-65
2022/08/08 05:55:28;;;;;;;12.07;10.00;;;;;;;23.01;55.17;95119.94;4980312;28;20223;-64
2022/08/08 05:57:58;;;;;;;11.60;10.57;;;;;;;22.92;55.69;95125.84;4983256;28;20230;-65
2022/08/08 06:00:30;;;;;;;12.52;10.63;;;;;;;22.89;56.00;95122.53;4985981;28;20223;-66
2022/08/08 06:03:10;;;;;;;11.85;10.63;;;;;;;23.08;55.94;95125.22;4987500;28;20234;-66
2022/08/08 06:05:47;;;;;;;11.02;9.82;;;;;;;23.26;54.81;95122.50;4991126;28;20247;-64
2022/08/08 06:08:14;;;;;;;11.48;10.13;;;;;;;23.22;54.38;95126.66;4984494;28;20249;-65
2022/08/08 06:10:40;;;;;;;10.85;10.00;;;;;;;23.29;54.69;95122.03;4980379;28;20261;-65
2022/08/08 06:13:09;;;;;;;11.15;10.20;;;;;;;23.31;54.57;95128.00;4989330;28;20231;-65
2022/08/08 06:15:36;;;;;;;10.90;10.07;;;;;;;23.21;55.39;95130.41;4986166;28;20672;-63
2022/08/08 06:18:02;;;;;;;11.10;10.20;;;;;;;23.20;55.19;95127.94;4988143;28;20227;-63
2022/08/08 06:20:28;;;;;;;10.73;9.68;;;;;;;23.22;55.62;95131.22;4984023;28;20226;-61
2022/08/08 06:22:54;;;;;;;11.35;10.30;;;;;;;23.37;54.99;95131.63;4988782;28;20211;-60
2022/08/08 06:25:20;;;;;;;11.40;10.35;;;;;;;23.48;54.37;95130.03;4989480;28;20319;-62
2022/08/08 06:27:56;;;;;;;11.18;10.15;;;;;;;23.66;53.55;95129.97;4976981;28;20235;-62
2022/08/08 06:30:22;;;;;;;11.23;10.00;;;;;;;23.71;53.48;95135.50;4971501;28;20224;-69
2022/08/08 06:32:55;;;;;;;11.02;10.02;;;;;;;23.77;53.75;95137.25;4983241;28;20226;-64
2022/08/08 06:35:24;;;;;;;12.82;11.65;;;;;;;23.74;53.36;95134.22;4981860;28;20239;-65
2022/08/08 06:37:58;;;;;;;13.52;12.25;;;;;;;23.84;52.94;95131.75;5002337;28;20273;-61
2022/08/08 06:40:27;;;;;;;10.88;9.98;;;;;;;23.90;53.07;95140.78;4986418;28;20339;-61
2022/08/08 06:42:56;;;;;;;10.88;9.88;;;;;;;24.01;52.45;95145.34;4990189;28;20243;-64
2022/08/08 06:45:22;;;;;;;10.65;9.55;;;;;;;24.03;52.62;95139.72;4984874;28;20255;-68
2022/08/08 06:47:51;;;;;;;10.43;9.43;;;;;;;24.09;52.71;95142.31;4981765;28;20710;-65
2022/08/08 06:50:17;;;;;;;9.70;8.70;;;;;;;23.79;52.89;95142.41;4985809;28;20215;-64
2022/08/08 06:52:43;;;;;;;10.90;9.80;;;;;;;23.92;52.52;95141.34;5006328;28;20191;-67
2022/08/08 06:55:11;;;;;;;10.73;9.82;;;;;;;23.94;51.93;95145.44;4986091;28;20231;-62
2022/08/08 06:57:36;;;;;;;11.25;9.15;;;;;;;24.12;51.41;95146.38;4984541;28;20215;-67
2022/08/08 07:00:07;;;;;;;9.55;8.75;;;;;;;24.27;50.74;95138.69;4989085;28;20219;-65
2022/08/08 07:02:34;;;;;;;10.18;8.65;;;;;;;24.40;50.79;95142.97;4990769;28;20302;-62
2022/08/08 07:05:08;;;;;;;10.23;9.02;;;;;;;24.54;50.51;95141.72;4983601;28;20211;-67
2022/08/08 07:07:52;;;;;;;10.38;9.27;;;;;;;24.59;50.68;95146.38;4985945;28;20231;-69
2022/08/08 07:10:22;;;;;;;9.93;8.90;;;;;;;24.63;51.00;95144.88;4982045;28;20303;-69
2022/08/08 07:13:02;;;;;;;10.40;9.23;;;;;;;24.61;50.21;95147.78;4996719;28;20215;-64
2022/08/08 07:15:37;;;;;;;8.95;8.18;;;;;;;24.72;49.70;95150.69;5004536;28;20237;-61
2022/08/08 07:18:08;;;;;;;8.70;7.82;;;;;;;24.72;48.63;95140.75;4999662;28;20217;-60
2022/08/08 07:20:43;;;;;;;8.75;7.85;;;;;;;24.81;48.02;95141.22;5003329;28;20223;-66
2022/08/08 07:23:35;;;;;;;8.15;7.40;;;;;;;24.93;46.64;95141.16;5000490;28;20302;-66
2022/08/08 07:26:02;;;;;;;7.85;6.72;;;;;;;24.96;46.01;95146.88;5001894;28;20207;-66
2022/08/08 07:28:28;;;;;;;7.97;7.13;;;;;;;24.89;45.98;95140.03;4996210;28;20725;-69
2022/08/08 07:30:57;;;;;;;9.02;7.20;;;;;;;25.01;45.62;95138.91;5004036;28;20214;-68
2022/08/08 07:33:26;;;;;;;9.00;8.10;;;;;;;25.11;46.05;95137.50;4993826;28;20322;-67
2022/08/08 07:35:52;;;;;;;7.80;7.10;;;;;;;25.03;45.60;95146.75;4981299;28;20226;-64
2022/08/08 07:38:18;;;;;;;7.75;7.05;;;;;;;25.22;45.15;95142.84;5000747;28;20205;-59
2022/08/08 07:40:45;;;;;;;7.78;7.00;;;;;;;25.22;44.56;95139.34;5005097;28;20190;-64
2022/08/08 07:43:12;;;;;;;9.32;6.68;;;;;;;25.39;43.96;95134.00;4993795;28;20227;-64
2022/08/08 07:45:38;;;;;;;7.85;7.10;;;;;;;25.39;44.25;95140.19;4997460;28;20224;-68
2022/08/08 07:48:03;;;;;;;7.50;6.80;;;;;;;25.56;43.83;95139.44;4986037;28;20231;-61
2022/08/08 07:50:32;;;;;;;6.45;5.85;;;;;;;25.57;42.93;95133.78;4992657;28;20242;-62
2022/08/08 07:53:05;;;;;;;6.10;5.57;;;;;;;25.66;42.23;95137.75;4992353;28;20223;-60
2022/08/08 07:55:35;;;;;;;6.50;5.80;;;;;;;25.74;41.69;95136.50;4989042;28;21003;-62
2022/08/08 07:58:03;;;;;;;6.43;5.82;;;;;;;25.70;41.96;95136.19;4991202;28;20278;-62
2022/08/08 08:00:54;;;;;;;6.95;6.35;;;;;;;25.80;42.35;95134.72;4981818;28;20224;-65
2022/08/08 08:03:50;;;;;;;7.88;7.07;;;;;;;25.86;42.64;95134.59;4982598;28;20251;-66
2022/08/08 08:06:18;;;;;;;8.25;6.10;;;;;;;25.91;41.72;95126.59;4983287;28;20226;-67
2022/08/08 08:08:55;;;;;;;8.27;5.88;;;;;;;25.88;41.10;95118.19;4983523;28;20223;-68
2022/08/08 08:11:22;;;;;;;6.80;5.88;;;;;;;25.98;41.50;95131.78;4987906;28;20449;-64
2022/08/08 08:13:54;;;;;;;6.15;5.65;;;;;;;26.05;40.74;95129.75;5009680;28;20298;-62
2022/08/08 08:16:25;;;;;;;8.30;5.80;;;;;;;26.11;39.73;95126.06;5006302;28;20238;-65
2022/08/08 08:18:56;;;;;;;6.28;5.70;;;;;;;26.21;41.64;95125.44;5008299;28;20231;-68
2022/08/08 08:21:25;;;;;;;6.38;5.32;;;;;;;26.22;41.24;95121.66;4988859;28;20375;-67
2022/08/08 08:23:50;;;;;;;6.13;5.28;;;;;;;26.23;40.17;95117.91;4984885;28;20228;-61
2022/08/08 08:26:17;;;;;;;6.10;4.78;;;;;;;26.25;40.49;95120.34;4985762;28;20214;-67
2022/08/08 08:28:43;;;;;;;5.18;4.78;;;;;;;26.29;39.71;95116.09;4999786;28;20293;-67
2022/08/08 08:31:09;;;;;;;5.05;4.65;;;;;;;26.35;40.24;95117.81;4988076;28;20776;-67
2022/08/08 08:33:34;;;;;;;9.85;4.78;;;;;;;26.44;39.65;95115.50;4988357;28;20226;-59
2022/08/08 08:36:01;;;;;;;6.72;4.30;;;;;;;26.44;39.67;95113.63;4987814;28;20247;-62
2022/08/08 08:38:27;;;;;;;5.63;5.18;;;;;;;26.42;37.94;95117.63;4992257;28;20204;-61
2022/08/08 08:40:52;;;;;;;5.43;4.85;;;;;;;26.50;38.94;95111.81;4991434;28;20207;-67
2022/08/08 08:43:19;;;;;;;5.10;4.70;;;;;;;26.53;38.67;95114.03;4990412;28;20219;-66
2022/08/08 08:45:47;;;;;;;5.43;4.93;;;;;;;26.57;39.07;95115.16;5002853;28;20325;-61
2022/08/08 08:48:18;;;;;;;7.88;5.03;;;;;;;26.57;39.88;95105.22;5006511;28;20617;-66
2022/08/08 08:50:48;;;;;;;4.95;4.43;;;;;;;26.64;39.41;95112.28;5006121;28;20262;-67
2022/08/08 08:53:14;;;;;;;5.00;4.50;;;;;;;26.67;39.35;95095.59;5005915;28;20236;-68
2022/08/08 08:55:42;;;;;;;5.78;4.38;;;;;;;26.84;37.41;95099.06;4993110;28;20368;-66
2022/08/08 08:58:38;;;;;;;4.80;4.40;;;;;;;26.84;38.11;95102.56;4990429;28;20232;-62
2022/08/08 09:01:05;;;;;;;5.47;4.70;;;;;;;26.87;37.18;95089.66;4987743;28;20222;-63
2022/08/08 09:03:31;;;;;;;6.32;4.65;;;;;;;26.97;36.56;95084.34;4981908;28;20220;-61
2022/08/08 09:05:57;;;;;;;4.97;4.45;;;;;;;26.84;37.67;95086.38;4988279;28;20258;-66
2022/08/08 09:08:26;;;;;;;5.50;5.00;;;;;;;26.66;38.41;95091.28;4978707;28;20206;-61
2022/08/08 09:10:55;;;;;;;5.28;4.78;;;;;;;26.60;38.23;95079.63;4987192;28;20265;-64
2022/08/08 09:13:21;;;;;;;5.25;4.55;;;;;;;26.75;36.26;95085.19;4989414;28;20235;-69
2022/08/08 09:15:47;;;;;;;5.40;4.60;;;;;;;26.91;36.76;95086.19;4994748;28;20231;-66
2022/08/08 09:18:16;;;;;;;5.63;4.35;;;;;;;27.05;35.61;95086.59;4997644;28;20218;-61
2022/08/08 09:20:44;;;;;;;6.47;4.10;;;;;;;27.17;35.87;95081.91;4998724;28;20235;-62
2022/08/08 09:23:17;;;;;;;7.55;3.88;;;;;;;27.30;34.35;95083.41;4990608;28;20239;-66
2022/08/08 09:25:55;;;;;;;4.28;3.95;;;;;;;27.39;35.00;95081.06;4982549;28;20238;-67
2022/08/08 09:28:26;;;;;;;7.38;6.68;;;;;;;27.53;34.21;95071.44;4978921;28;20226;-69
2022/08/08 09:30:52;;;;;;;7.00;5.25;;;;;;;27.64;34.03;95070.50;4993631;28;20274;-63
2022/08/08 09:33:20;;;;;;;8.32;5.90;;;;;;;27.92;34.50;95068.56;4982740;28;20227;-62
2022/08/08 09:35:49;;;;;;;4.82;4.35;;;;;;;28.00;33.55;95062.66;4992008;28;20301;-64
2022/08/08 09:38:30;;;;;;;9.18;5.60;;;;;;;27.88;34.20;95064.72;4996548;28;20210;-62
2022/08/08 09:41:03;;;;;;;4.38;3.97;;;;;;;28.04;33.11;95062.94;5002013;28;20191;-62
2022/08/08 09:43:33;;;;;;;11.18;6.55;;;;;;;28.03;34.21;95061.34;4984743;28;20781;-63
2022/08/08 09:46:04;;;;;;;6.80;5.00;;;;;;;28.19;33.12;95059.53;4996410;28;20359;-66
2022/08/08 09:48:35;;;;;;;5.85;4.15;;;;;;;28.13;33.76;95048.69;5004198;28;20234;-65
2022/08/08 09:51:02;;;;;;;4.95;4.10;;;;;;;28.07;33.55;95049.75;4996412;28;20246;-62
2022/08/08 09:53:36;;;;;;;4.97;3.70;;;;;;;27.79;33.71;95045.47;4977337;28;20233;-64
2022/08/08 09:56:08;;;;;;;6.55;4.38;;;;;;;27.84;33.65;95047.44;4982744;28;20207;-64
2022/08/08 09:58:38;;;;;;;7.50;4.50;;;;;;;28.07;34.00;95041.66;5000388;28;20272;-65
2022/08/08 10:01:08;;;;;;;7.28;4.85;;;;;;;28.10;32.48;95040.31;5004010;28;20237;-62
2022/08/08 10:03:36;;;;;;;5.00;4.50;;;;;;;28.34;32.44;95032.59;5003402;28;20219;-60
2022/08/08 10:06:15;;;;;;;3.95;3.60;;;;;;;28.50;32.93;95025.41;5006220;28;20226;-67
2022/08/08 10:08:45;;;;;;;6.75;5.70;;;;;;;28.67;32.33;95030.59;4998023;28;20231;-63
2022/08/08 10:11:15;;;;;;;8.57;6.05;;;;;;;28.89;32.75;95031.19;4982625;28;20196;-63
2022/08/08 10:13:55;;;;;;;4.65;4.10;;;;;;;29.05;32.78;95017.75;5005854;28;20215;-59
2022/08/08 10:16:21;;;;;;;9.02;5.93;;;;;;;29.19;31.55;95019.69;4975826;28;20231;-69
2022/08/08 10:18:48;;;;;;;7.05;5.32;;;;;;;29.35;30.66;95008.84;4985506;28;20306;-63
2022/08/08 10:21:17;;;;;;;5.90;3.72;;;;;;;29.49;29.87;95006.44;4986565;28;20215;-64
2022/08/08 10:23:47;;;;;;;5.68;3.40;;;;;;;29.37;29.42;94993.94;4997612;28;20582;-69
2022/08/08 10:26:15;;;;;;;4.65;3.35;;;;;;;29.12;29.49;95004.75;4988318;28;20218;-67
2022/08/08 10:28:56;;;;;;;5.20;3.78;;;;;;;28.99;30.33;95001.47;4989426;28;20204;-62
2022/08/08 10:34:15;;;;;;;3.15;2.92;;;;;;;29.39;30.28;94994.50;4984246;28;20281;-58
2022/08/08 10:36:42;;;;;;;6.88;4.55;;;;;;;29.36;31.76;95008.56;4983409;28;20246;-67
2022/08/08 10:39:17;;;;;;;4.82;4.32;;;;;;;29.32;32.44;95004.78;4988952;28;20302;-68
2022/08/08 10:41:44;;;;;;;7.38;3.85;;;;;;;29.67;30.04;94997.75;5002221;28;20745;-61
2022/08/08 10:44:11;;;;;;;3.88;3.42;;;;;;;30.13;29.01;94991.47;4996145;28;20210;-63
2022/08/08 10:46:37;;;;;;;3.92;3.05;;;;;;;30.55;27.67;94988.34;5007903;28;20210;-68
2022/08/08 10:49:02;;;;;;;5.10;3.33;;;;;;;30.68;26.80;94978.78;4993138;28;20262;-61
2022/08/08 10:51:36;;;;;;;4.35;3.95;;;;;;;30.60;28.04;94974.75;4990160;28;20231;-65
2022/08/08 10:54:04;;;;;;;6.43;4.50;;;;;;;30.24;29.08;94977.63;4990312;28;20741;-67
2022/08/08 10:56:33;;;;;;;5.05;4.60;;;;;;;30.12;29.79;94985.22;4982335;28;20256;-71
2022/08/08 10:59:00;;;;;;;5.25;3.90;;;;;;;30.13;30.50;94986.03;4988178;28;20200;-66
2022/08/08 11:01:31;;;;;;;4.95;3.00;;;;;;;30.31;27.75;94980.84;5006198;28;20230;-62
2022/08/08 11:03:59;;;;;;;4.18;3.50;;;;;;;30.24;29.42;94972.19;5005463;28;20226;-66
2022/08/08 11:06:35;;;;;;;5.15;3.63;;;;;;;30.25;28.62;94965.66;5009953;28;20226;-66
2022/08/08 11:09:01;;;;;;;7.80;3.97;;;;;;;30.66;27.51;94970.94;5007589;28;20230;-61
2022/08/08 11:11:44;;;;;;;4.72;3.50;;;;;;;30.51;26.93;94965.56;5007330;28;20576;-69
2022/08/08 11:14:12;;;;;;;3.65;3.38;;;;;;;30.32;27.74;94966.19;5010488;28;20217;-63
2022/08/08 11:16:44;;;;;;;3.92;3.60;;;;;;;30.29;28.29;94971.38;5006527;28;20211;-64
2022/08/08 11:19:12;;;;;;;4.05;3.70;;;;;;;30.11;30.22;94972.75;4986495;28;20219;-69
2022/08/08 11:21:45;;;;;;;4.38;3.60;;;;;;;30.54;28.14;94965.81;4980885;28;20219;-63
2022/08/08 11:24:12;;;;;;;4.32;3.45;;;;;;;30.86;27.88;94967.31;4983190;28;20223;-67
2022/08/08 11:26:41;;;;;;;3.47;2.75;;;;;;;30.74;27.98;94966.81;4979261;28;20244;-61
2022/08/08 11:29:07;;;;;;;4.18;3.78;;;;;;;30.33;31.57;94961.56;4983419;28;20622;-70
2022/08/08 11:31:37;;;;;;;4.95;3.33;;;;;;;30.07;29.95;94971.66;4996799;28;20226;-64
2022/08/08 11:34:04;;;;;;;5.82;3.47;;;;;;;29.82;29.24;94956.28;4995337;28;20255;-65
2022/08/08 11:36:31;;;;;;;4.57;3.22;;;;;;;30.10;28.70;94958.38;4993345;28;20267;-62
2022/08/08 11:39:01;;;;;;;5.78;3.55;;;;;;;30.68;28.31;94963.31;4991380;28;20228;-67
2022/08/08 11:41:29;;;;;;;4.35;3.30;;;;;;;31.23;27.11;94959.75;4985795;28;20297;-64
2022/08/08 11:43:56;;;;;;;3.03;2.78;;;;;;;31.28;26.80;94957.81;4991012;28;20298;-64
2022/08/08 11:46:28;;;;;;;4.93;2.97;;;;;;;31.02;27.21;94959.06;4981836;28;20231;-65
2022/08/08 11:48:58;;;;;;;4.85;3.33;;;;;;;30.87;27.52;94949.13;4981911;28;20721;-64
2022/08/08 11:51:25;;;;;;;10.75;3.65;;;;;;;30.74;28.39;94947.78;4990094;28;20239;-63
2022/08/08 11:53:51;;;;;;;3.20;2.90;;;;;;;30.62;28.35;94956.28;4991364;28;20274;-66